Time;durP1;ratioP1;P1;durP2;ratioP2;P2;SDS_P1;SDS_P2;PMS_P1;PMS_P2;Temp;Humidity;BMP_temperature;BMP_pressure;BME280_temperature;BME280_humidity;BME280_pressure;Samples;Min_cycle;Max_cycle;Signal;HPM_P1;HPM_P2
2020/12/05 05:02:44;;;;;;;42.80;25.43;;;2.30;99.90;;;;;;4954914;29;20467;-61
2020/12/05 05:05:13;;;;;;;46.97;26.87;;;2.20;99.90;;;;;;4956210;28;20461;-61
2020/12/05 05:07:49;;;;;;;44.70;27.47;;;2.20;99.90;;;;;;4956149;28;20452;-61
2020/12/05 05:10:19;;;;;;;41.73;24.97;;;2.20;99.90;;;;;;4955759;28;20454;-62
2020/12/05 05:12:45;;;;;;;42.17;26.13;;;2.30;99.90;;;;;;4956057;28;20876;-61
2020/12/05 05:15:28;;;;;;;45.57;26.47;;;2.30;99.90;;;;;;4956127;28;20614;-62
2020/12/05 05:17:56;;;;;;;44.97;25.60;;;2.30;99.90;;;;;;4957145;28;20432;-62
2020/12/05 05:20:23;;;;;;;41.67;28.03;;;2.50;99.90;;;;;;4954871;28;20451;-62
2020/12/05 05:22:50;;;;;;;43.27;27.07;;;2.50;99.90;;;;;;4955941;28;20822;-61
2020/12/05 05:25:17;;;;;;;46.80;27.63;;;2.50;99.90;;;;;;4956433;28;20528;-61
2020/12/05 05:27:58;;;;;;;44.17;26.27;;;2.50;99.90;;;;;;4955805;28;20458;-61
2020/12/05 05:30:24;;;;;;;38.17;24.90;;;2.50;99.90;;;;;;4955394;28;20939;-61
2020/12/05 05:32:52;;;;;;;48.67;26.47;;;2.60;99.90;;;;;;4955631;28;20483;-61
2020/12/05 05:35:19;;;;;;;39.97;26.00;;;2.60;99.90;;;;;;4955624;28;20487;-62
2020/12/05 05:37:45;;;;;;;49.57;26.50;;;2.60;99.90;;;;;;4955684;28;20459;-62
2020/12/05 05:40:12;;;;;;;45.93;27.87;;;2.60;99.90;;;;;;4955460;28;20452;-62
2020/12/05 05:42:40;;;;;;;39.53;25.90;;;2.60;99.90;;;;;;4955875;28;20503;-61
2020/12/05 05:45:18;;;;;;;47.27;26.37;;;2.50;99.90;;;;;;4955779;28;20455;-61
2020/12/05 05:47:45;;;;;;;39.70;24.63;;;2.60;99.90;;;;;;4955891;28;20466;-61
2020/12/05 05:50:24;;;;;;;39.23;24.43;;;2.60;99.90;;;;;;4955476;28;20478;-62
2020/12/05 05:52:54;;;;;;;42.00;26.40;;;2.60;99.90;;;;;;4955564;28;20482;-62
2020/12/05 05:55:21;;;;;;;40.20;27.00;;;2.50;99.90;;;;;;4955728;28;20479;-62
2020/12/05 05:57:47;;;;;;;44.30;25.90;;;2.50;99.90;;;;;;4955603;28;20458;-60
2020/12/05 06:00:14;;;;;;;40.13;27.00;;;2.50;99.90;;;;;;4956084;28;20447;-62
2020/12/05 06:02:41;;;;;;;40.87;25.73;;;2.60;99.90;;;;;;4955180;28;20463;-63
2020/12/05 06:05:08;;;;;;;40.87;25.50;;;2.50;99.90;;;;;;4955544;28;20452;-63
2020/12/05 06:07:38;;;;;;;35.07;24.17;;;2.50;99.90;;;;;;4955457;28;20490;-64
2020/12/05 06:10:04;;;;;;;40.53;23.70;;;2.60;99.90;;;;;;4955550;28;20945;-62
2020/12/05 06:12:35;;;;;;;40.10;24.40;;;2.60;99.90;;;;;;4955368;28;20483;-62
2020/12/05 06:15:02;;;;;;;34.33;23.20;;;2.70;99.90;;;;;;4955444;28;20491;-63
2020/12/05 06:17:28;;;;;;;39.63;24.63;;;2.80;99.90;;;;;;4955332;28;20455;-63
2020/12/05 06:19:56;;;;;;;34.87;23.80;;;2.80;99.90;;;;;;4955298;28;20451;-63
2020/12/05 06:22:43;;;;;;;34.37;24.83;;;2.80;99.90;;;;;;4955265;28;20475;-64
2020/12/05 06:25:11;;;;;;;36.77;23.97;;;2.80;99.90;;;;;;4955505;28;20437;-63
2020/12/05 06:27:42;;;;;;;39.33;25.10;;;2.80;99.90;;;;;;4954885;28;20952;-63
2020/12/05 06:30:08;;;;;;;40.07;25.37;;;2.70;99.90;;;;;;4955136;28;20495;-62
2020/12/05 06:32:40;;;;;;;37.40;25.80;;;2.70;99.90;;;;;;4957738;28;20487;-63
2020/12/05 06:35:30;;;;;;;45.23;26.80;;;2.70;99.90;;;;;;4958612;28;20797;-63
2020/12/05 06:37:57;;;;;;;46.10;26.17;;;2.60;99.90;;;;;;4958946;28;20809;-62
2020/12/05 06:40:24;;;;;;;44.90;25.63;;;2.60;99.90;;;;;;4958718;28;20459;-63
2020/12/05 06:42:52;;;;;;;43.50;26.03;;;2.50;99.90;;;;;;4958598;28;20816;-63
2020/12/05 06:45:37;;;;;;;40.93;25.03;;;2.40;99.90;;;;;;4958640;28;20451;-63
2020/12/05 06:48:35;;;;;;;42.10;24.77;;;2.40;99.90;;;;;;4958928;28;20432;-64
2020/12/05 06:51:01;;;;;;;38.10;25.40;;;2.40;99.90;;;;;;4958813;28;20475;-63
2020/12/05 06:53:33;;;;;;;38.17;24.23;;;2.40;99.90;;;;;;4958404;29;20510;-64
2020/12/05 06:56:00;;;;;;;37.40;24.20;;;2.40;99.90;;;;;;4958344;28;20931;-63
2020/12/05 06:58:28;;;;;;;35.67;23.63;;;2.40;99.90;;;;;;4958376;28;20455;-63
2020/12/05 07:00:55;;;;;;;37.03;23.90;;;2.40;99.90;;;;;;4958267;28;20923;-63
2020/12/05 07:03:26;;;;;;;40.20;29.42;;;2.40;99.90;;;;;;4957865;28;20487;-63
2020/12/05 07:05:52;;;;;;;34.53;24.67;;;2.50;99.90;;;;;;4958416;28;20199;-62
2020/12/05 07:08:33;;;;;;;34.23;24.10;;;2.60;99.90;;;;;;4958204;28;20994;-63
2020/12/05 07:11:03;;;;;;;30.43;21.60;;;2.60;99.90;;;;;;4959424;28;21062;-63
2020/12/05 07:13:37;;;;;;;33.30;21.70;;;2.70;99.90;;;;;;4969839;28;20475;-62
2020/12/05 07:16:12;;;;;;;27.00;19.53;;;2.70;99.90;;;;;;4959790;28;20463;-62
2020/12/05 07:18:39;;;;;;;25.67;20.10;;;2.80;99.90;;;;;;4958264;28;20448;-62
2020/12/05 07:21:06;;;;;;;26.37;20.50;;;2.80;99.90;;;;;;4958222;28;20471;-63
2020/12/05 07:23:33;;;;;;;30.00;19.30;;;2.80;99.90;;;;;;4958057;28;20452;-63
2020/12/05 07:26:00;;;;;;;27.53;19.70;;;2.90;99.90;;;;;;4958029;28;20456;-63
2020/12/05 07:28:27;;;;;;;25.53;18.97;;;3.00;99.90;;;;;;4958192;28;20478;-62
2020/12/05 07:30:53;;;;;;;25.93;18.60;;;3.10;99.90;;;;;;4957958;28;20471;-61
2020/12/05 07:33:20;;;;;;;27.73;18.83;;;3.10;99.90;;;;;;4957692;28;20514;-63
2020/12/05 07:35:55;;;;;;;24.33;18.07;;;3.20;99.90;;;;;;4957472;28;20456;-63
2020/12/05 07:38:21;;;;;;;21.10;16.40;;;3.20;99.90;;;;;;4957696;28;20443;-63
2020/12/05 07:40:48;;;;;;;20.57;15.80;;;3.20;99.90;;;;;;4957823;28;20688;-63
2020/12/05 07:43:19;;;;;;;19.90;16.10;;;3.30;99.90;;;;;;4956518;28;20972;-62
2020/12/05 07:45:47;;;;;;;24.10;17.30;;;3.30;99.90;;;;;;4957614;28;20456;-63
2020/12/05 07:48:15;;;;;;;21.40;16.90;;;3.30;99.90;;;;;;4957572;28;20459;-63
2020/12/05 07:50:41;;;;;;;22.60;16.07;;;3.30;99.90;;;;;;4957557;28;20472;-63
2020/12/05 07:53:28;;;;;;;20.13;14.83;;;3.20;99.90;;;;;;4957543;28;20506;-64
2020/12/05 07:55:55;;;;;;;20.97;15.70;;;3.20;99.90;;;;;;4957522;28;20851;-62
2020/12/05 07:58:22;;;;;;;18.37;15.60;;;3.20;99.90;;;;;;4957618;28;20462;-62
2020/12/05 08:00:52;;;;;;;19.07;15.37;;;3.30;99.90;;;;;;4957616;28;20480;-63
2020/12/05 08:03:50;;;;;;;20.87;15.07;;;3.40;99.90;;;;;;4957458;28;20467;-63
2020/12/05 08:06:41;;;;;;;18.50;14.97;;;3.50;99.90;;;;;;4957730;28;20446;-62
2020/12/05 08:09:07;;;;;;;18.47;14.37;;;3.50;99.90;;;;;;4957373;28;20459;-62
2020/12/05 08:11:45;;;;;;;14.33;12.83;;;3.60;99.90;;;;;;4957331;28;20472;-62
2020/12/05 08:14:12;;;;;;;17.43;13.67;;;3.60;99.90;;;;;;4957592;28;20862;-62
2020/12/05 08:16:39;;;;;;;16.20;14.00;;;3.70;99.90;;;;;;4957810;28;20460;-63
2020/12/05 08:19:06;;;;;;;18.10;13.73;;;3.70;99.90;;;;;;4957529;28;20459;-62
2020/12/05 08:21:34;;;;;;;16.53;14.20;;;3.70;99.90;;;;;;4958238;28;20472;-62
2020/12/05 08:24:07;;;;;;;17.60;14.40;;;3.70;99.90;;;;;;4956964;28;20506;-63
2020/12/05 08:26:35;;;;;;;15.90;13.27;;;3.70;99.90;;;;;;4956966;28;20451;-62
2020/12/05 08:29:03;;;;;;;14.30;12.40;;;3.70;99.90;;;;;;4956977;28;20462;-62
2020/12/05 08:31:29;;;;;;;16.60;14.63;;;3.70;99.90;;;;;;4956549;28;20976;-62
2020/12/05 08:33:56;;;;;;;16.93;12.77;;;3.70;99.90;;;;;;4956876;28;20447;-63
2020/12/05 08:36:31;;;;;;;21.20;12.83;;;3.80;99.90;;;;;;4956957;28;20451;-63
2020/12/05 08:39:01;;;;;;;17.80;13.70;;;3.70;99.90;;;;;;4957189;28;20439;-62
2020/12/05 08:41:28;;;;;;;16.43;13.57;;;3.80;99.90;;;;;;4956438;28;20983;-63
2020/12/05 08:43:54;;;;;;;15.70;13.73;;;3.80;99.90;;;;;;4956260;28;20836;-63
2020/12/05 08:46:22;;;;;;;13.63;12.27;;;3.80;99.90;;;;;;4957293;28;20448;-63
2020/12/05 08:48:49;;;;;;;13.83;11.70;;;3.80;99.90;;;;;;4956307;28;20466;-63
2020/12/05 08:51:15;;;;;;;14.00;11.97;;;3.80;99.90;;;;;;4956491;28;20479;-63
2020/12/05 08:53:43;;;;;;;13.80;11.20;;;3.70;99.90;;;;;;4957195;28;20830;-63
2020/12/05 08:56:18;;;;;;;13.03;11.60;;;3.70;99.90;;;;;;4968624;28;20435;-64
2020/12/05 08:58:46;;;;;;;13.40;12.03;;;3.80;99.90;;;;;;4980075;28;20453;-62
2020/12/05 09:01:12;;;;;;;12.47;10.93;;;3.80;99.90;;;;;;4979695;28;20479;-62
2020/12/05 09:03:40;;;;;;;14.60;12.20;;;3.90;99.90;;;;;;4976430;28;21061;-63
2020/12/05 09:06:06;;;;;;;29.00;13.13;;;3.90;99.90;;;;;;4971749;28;20451;-61
2020/12/05 09:08:33;;;;;;;18.43;12.67;;;4.00;99.90;;;;;;4957816;28;20948;-62
2020/12/05 09:11:00;;;;;;;22.00;13.50;;;4.00;99.90;;;;;;4958159;28;20499;-63
2020/12/05 09:13:26;;;;;;;19.13;14.03;;;4.00;99.90;;;;;;4958457;28;20479;-63
2020/12/05 09:15:58;;;;;;;18.57;15.37;;;4.10;99.90;;;;;;4958004;28;20451;-62
2020/12/05 09:18:25;;;;;;;13.30;12.00;;;4.10;99.90;;;;;;4957712;28;20569;-63
2020/12/05 09:20:52;;;;;;;13.73;12.20;;;4.20;99.90;;;;;;4957286;28;20483;-63
2020/12/05 09:23:29;;;;;;;14.93;13.33;;;4.20;99.90;;;;;;4957204;28;20456;-63
2020/12/05 09:26:04;;;;;;;14.37;12.63;;;4.20;99.90;;;;;;4957208;28;20452;-62
2020/12/05 09:28:31;;;;;;;14.93;13.50;;;4.20;99.90;;;;;;4957143;28;20916;-62
2020/12/05 09:30:58;;;;;;;13.40;12.03;;;4.20;99.90;;;;;;4957308;28;20481;-62
2020/12/05 09:33:24;;;;;;;14.97;11.80;;;4.20;99.90;;;;;;4956629;28;20475;-61
2020/12/05 09:35:51;;;;;;;14.10;12.67;;;4.20;99.90;;;;;;4959078;28;20439;-62
2020/12/05 09:38:18;;;;;;;13.23;11.87;;;4.20;99.90;;;;;;4957713;28;20458;-63
2020/12/05 09:40:44;;;;;;;13.87;12.13;;;4.30;99.90;;;;;;4956967;28;20476;-62
2020/12/05 09:43:11;;;;;;;12.93;11.60;;;4.20;99.90;;;;;;4956366;28;20947;-63
2020/12/05 09:45:37;;;;;;;12.93;11.60;;;4.30;99.90;;;;;;4955887;28;20459;-63
2020/12/05 09:48:03;;;;;;;14.70;12.20;;;4.20;99.90;;;;;;4956937;28;20457;-61
2020/12/05 09:50:30;;;;;;;17.67;14.40;;;4.30;99.90;;;;;;4956353;28;20474;-63
2020/12/05 09:52:59;;;;;;;12.30;11.10;;;4.40;99.90;;;;;;4955632;28;20574;-63
2020/12/05 09:55:25;;;;;;;13.57;12.20;;;4.40;99.90;;;;;;4956521;28;20459;-62
2020/12/05 09:57:51;;;;;;;12.90;10.33;;;4.40;99.90;;;;;;4955544;28;20975;-63
2020/12/05 10:00:17;;;;;;;12.23;10.80;;;4.40;99.90;;;;;;4955485;28;20459;-63
2020/12/05 10:02:43;;;;;;;13.03;11.27;;;4.40;99.90;;;;;;4955383;28;20937;-63
2020/12/05 10:05:11;;;;;;;13.57;12.17;;;4.30;99.90;;;;;;4956063;28;20456;-63
2020/12/05 10:07:38;;;;;;;19.90;12.97;;;4.40;99.90;;;;;;4958230;28;20921;-62
2020/12/05 10:10:07;;;;;;;14.37;13.07;;;4.30;99.90;;;;;;4959393;28;20451;-61
2020/12/05 10:12:34;;;;;;;16.30;14.60;;;4.30;99.90;;;;;;4959318;28;20484;-62
2020/12/05 10:15:01;;;;;;;16.83;15.10;;;4.30;99.90;;;;;;4959103;28;20460;-61
2020/12/05 10:17:28;;;;;;;17.40;15.60;;;4.20;99.90;;;;;;4960014;28;20458;-60
2020/12/05 10:19:54;;;;;;;16.63;14.43;;;4.20;99.90;;;;;;4961053;28;20467;-61
2020/12/05 10:22:20;;;;;;;16.67;14.03;;;4.10;99.90;;;;;;4960840;28;20478;-61
2020/12/05 10:24:47;;;;;;;17.27;13.80;;;4.10;99.90;;;;;;4960749;28;20458;-61
2020/12/05 10:27:14;;;;;;;15.83;13.77;;;4.20;99.90;;;;;;4960178;28;20455;-62
2020/12/05 10:29:40;;;;;;;17.57;14.90;;;4.20;99.90;;;;;;4960747;28;20439;-62
2020/12/05 10:32:06;;;;;;;15.80;14.20;;;4.20;99.90;;;;;;4961496;28;20510;-63
2020/12/05 10:34:32;;;;;;;20.03;14.70;;;4.20;99.90;;;;;;4960444;28;20789;-61
2020/12/05 10:36:58;;;;;;;15.97;14.30;;;4.30;99.90;;;;;;4960500;28;20459;-60
2020/12/05 10:39:24;;;;;;;21.00;16.60;;;4.30;99.90;;;;;;4960852;28;20551;-63
2020/12/05 10:41:51;;;;;;;18.63;16.53;;;4.30;99.90;;;;;;4960198;28;20479;-62
2020/12/05 10:44:18;;;;;;;17.13;15.33;;;4.30;99.90;;;;;;4963665;28;20451;-62
2020/12/05 10:46:47;;;;;;;17.40;15.70;;;4.30;99.90;;;;;;4972229;28;20455;-63
2020/12/05 10:49:14;;;;;;;15.73;14.10;;;4.30;99.90;;;;;;4971996;28;21010;-63
2020/12/05 10:51:40;;;;;;;16.90;13.70;;;4.30;99.90;;;;;;4970785;28;20479;-63
2020/12/05 10:54:07;;;;;;;22.30;15.50;;;4.30;99.90;;;;;;4978028;28;20556;-63
2020/12/05 10:56:33;;;;;;;16.60;13.83;;;4.20;99.90;;;;;;4982028;28;20437;-62
2020/12/05 10:58:59;;;;;;;16.03;14.10;;;4.30;99.90;;;;;;4974273;29;20584;-63
2020/12/05 11:01:26;;;;;;;16.13;14.33;;;4.20;99.90;;;;;;4969117;28;20489;-63
2020/12/05 11:03:52;;;;;;;20.23;14.40;;;4.30;99.90;;;;;;4961631;28;20451;-62
2020/12/05 11:06:20;;;;;;;24.27;20.10;;;4.30;99.90;;;;;;4960541;28;20451;-62
2020/12/05 11:08:46;;;;;;;27.30;19.73;;;4.20;99.90;;;;;;4959568;28;20487;-63
2020/12/05 11:11:12;;;;;;;23.93;19.50;;;4.30;99.90;;;;;;4958975;28;20482;-61
2020/12/05 11:13:38;;;;;;;19.87;17.77;;;4.20;99.90;;;;;;4959291;28;20484;-64
2020/12/05 11:16:05;;;;;;;22.20;17.37;;;4.20;99.90;;;;;;4959532;28;20800;-64
2020/12/05 11:18:32;;;;;;;18.60;16.43;;;4.20;99.90;;;;;;4959254;28;20459;-63
2020/12/05 11:20:58;;;;;;;19.93;17.90;;;4.20;99.90;;;;;;4959393;28;20498;-62
2020/12/05 11:23:24;;;;;;;24.93;16.67;;;4.20;99.90;;;;;;4959668;28;20459;-62
2020/12/05 11:25:50;;;;;;;18.40;16.50;;;4.20;99.90;;;;;;4959405;28;20980;-62
2020/12/05 11:28:17;;;;;;;19.50;17.40;;;4.30;99.90;;;;;;4959325;28;20456;-63
2020/12/05 11:30:43;;;;;;;19.13;17.10;;;4.40;99.90;;;;;;4960489;28;20475;-62
2020/12/05 11:33:10;;;;;;;18.63;16.63;;;4.50;99.90;;;;;;4959418;28;20479;-62
2020/12/05 11:35:37;;;;;;;16.70;14.87;;;4.50;99.90;;;;;;4959942;28;20436;-61
2020/12/05 11:38:03;;;;;;;19.13;15.57;;;4.60;99.90;;;;;;4959376;28;20478;-62
2020/12/05 11:40:29;;;;;;;16.80;15.10;;;4.70;99.90;;;;;;4959349;28;20815;-62
2020/12/05 11:42:55;;;;;;;20.83;17.00;;;4.80;99.90;;;;;;4959351;28;20451;-62
2020/12/05 11:45:22;;;;;;;16.77;14.93;;;4.80;99.90;;;;;;4959438;28;20459;-63
2020/12/05 11:47:48;;;;;;;15.87;14.20;;;5.00;99.90;;;;;;4958906;28;20478;-62
2020/12/05 11:50:14;;;;;;;14.40;12.87;;;5.30;99.90;;;;;;4959386;28;20463;-62
2020/12/05 11:52:41;;;;;;;16.27;13.30;;;5.40;99.90;;;;;;4959553;28;20518;-62
2020/12/05 11:55:07;;;;;;;15.30;13.70;;;5.60;99.90;;;;;;4959993;28;20868;-63
2020/12/05 11:57:33;;;;;;;14.90;12.93;;;5.60;99.90;;;;;;4958884;28;20456;-62
2020/12/05 11:59:59;;;;;;;18.93;12.07;;;5.70;99.90;;;;;;4958930;28;20455;-62
2020/12/05 12:02:26;;;;;;;14.00;12.70;;;5.60;99.90;;;;;;4958474;28;20499;-63
2020/12/05 12:04:52;;;;;;;14.47;12.30;;;5.60;99.90;;;;;;4959153;28;20460;-62
2020/12/05 12:07:18;;;;;;;15.40;12.67;;;5.50;99.90;;;;;;4959261;28;20459;-62
2020/12/05 12:09:45;;;;;;;14.93;13.40;;;5.50;99.90;;;;;;4959620;28;20455;-62
2020/12/05 12:12:11;;;;;;;14.67;12.60;;;5.40;99.90;;;;;;4959490;28;20471;-63
2020/12/05 12:14:38;;;;;;;13.23;11.93;;;5.40;99.90;;;;;;4958397;28;20828;-62
2020/12/05 12:17:04;;;;;;;13.03;11.70;;;5.30;99.90;;;;;;4958433;28;20455;-62
2020/12/05 12:19:30;;;;;;;13.40;12.00;;;5.30;99.90;;;;;;4958412;28;20460;-63
2020/12/05 12:21:56;;;;;;;12.50;11.20;;;5.30;99.90;;;;;;4959016;28;20812;-62
2020/12/05 12:24:23;;;;;;;12.97;11.60;;;5.30;99.90;;;;;;4958321;28;20455;-61
2020/12/05 12:26:50;;;;;;;12.23;11.10;;;5.30;99.90;;;;;;4958424;28;20478;-63
2020/12/05 12:29:16;;;;;;;12.63;11.43;;;5.30;99.90;;;;;;4957808;28;20532;-64
2020/12/05 12:31:42;;;;;;;13.30;12.03;;;5.20;99.90;;;;;;4958763;28;20487;-62
2020/12/05 12:34:09;;;;;;;12.20;11.00;;;5.20;99.90;;;;;;4958473;28;20487;-62
2020/12/05 12:36:36;;;;;;;15.13;13.63;;;5.10;99.90;;;;;;4958191;28;20460;-61
2020/12/05 12:39:03;;;;;;;15.10;13.60;;;5.10;99.90;;;;;;4958415;28;20458;-62
2020/12/05 12:41:29;;;;;;;17.60;13.50;;;5.00;99.90;;;;;;4959840;28;20475;-61
2020/12/05 12:43:56;;;;;;;14.77;13.37;;;5.00;99.90;;;;;;4957798;28;20452;-62
2020/12/05 12:46:24;;;;;;;15.17;12.97;;;5.10;99.90;;;;;;4958321;28;20483;-61
2020/12/05 12:48:50;;;;;;;15.30;13.60;;;5.10;99.90;;;;;;4958512;28;20840;-62
2020/12/05 12:51:22;;;;;;;28.33;14.50;;;5.00;99.90;;;;;;4957703;28;20479;-62
2020/12/05 12:53:48;;;;;;;16.20;14.60;;;5.00;99.90;;;;;;4957596;28;20499;-62
2020/12/05 12:56:18;;;;;;;16.77;15.17;;;5.00;99.90;;;;;;4957668;28;20451;-62
2020/12/05 12:58:45;;;;;;;16.97;15.27;;;5.00;99.90;;;;;;4957605;28;20542;-61
2020/12/05 13:01:14;;;;;;;15.93;14.27;;;5.00;99.90;;;;;;4957644;28;20483;-62
2020/12/05 13:03:41;;;;;;;14.73;13.20;;;5.00;99.90;;;;;;4958026;28;20543;-61
2020/12/05 13:06:07;;;;;;;16.83;14.87;;;5.00;99.90;;;;;;4958384;28;20456;-62
2020/12/05 13:08:34;;;;;;;17.33;14.37;;;5.00;99.90;;;;;;4958012;28;20503;-62
2020/12/05 13:11:01;;;;;;;17.30;15.50;;;5.00;99.90;;;;;;4958294;28;20531;-62
2020/12/05 13:13:28;;;;;;;16.53;14.80;;;5.00;99.90;;;;;;4957126;28;20840;-61
2020/12/05 13:15:54;;;;;;;16.20;14.53;;;5.00;99.90;;;;;;4957982;28;20460;-62
2020/12/05 13:18:21;;;;;;;16.37;14.50;;;5.00;99.90;;;;;;4958318;28;20458;-62
2020/12/05 13:20:47;;;;;;;17.20;14.80;;;5.00;99.90;;;;;;4958090;28;21000;-63
2020/12/05 13:23:13;;;;;;;15.33;13.67;;;5.00;99.90;;;;;;4959727;28;20452;-63
2020/12/05 13:25:39;;;;;;;14.03;12.63;;;5.00;99.90;;;;;;4958389;28;20458;-62
2020/12/05 13:28:05;;;;;;;15.60;14.00;;;5.00;99.90;;;;;;4957944;28;20956;-61
2020/12/05 13:30:32;;;;;;;14.00;12.70;;;5.00;99.90;;;;;;4957887;28;20463;-62
2020/12/05 13:32:58;;;;;;;14.43;12.93;;;5.00;99.90;;;;;;4958188;28;20475;-61
2020/12/05 13:35:25;;;;;;;14.53;13.03;;;5.00;99.90;;;;;;4958070;28;20463;-62
2020/12/05 13:37:51;;;;;;;15.80;14.20;;;5.00;99.90;;;;;;4956237;28;20451;-61
2020/12/05 13:40:17;;;;;;;15.57;14.07;;;5.00;99.90;;;;;;4955657;28;20456;-61
2020/12/05 13:42:43;;;;;;;15.70;14.20;;;5.10;99.90;;;;;;4955844;28;20455;-62
2020/12/05 13:45:09;;;;;;;15.53;14.00;;;5.10;99.90;;;;;;4956122;28;20488;-61
2020/12/05 13:47:35;;;;;;;15.23;13.73;;;5.10;99.90;;;;;;4955911;28;20451;-62
2020/12/05 13:50:02;;;;;;;15.93;13.90;;;5.20;99.90;;;;;;4956071;28;20455;-63
2020/12/05 13:52:29;;;;;;;14.70;13.30;;;5.20;99.90;;;;;;4955695;28;20988;-62
2020/12/05 13:54:56;;;;;;;15.17;13.37;;;5.20;99.90;;;;;;4955878;28;20455;-62
2020/12/05 13:57:22;;;;;;;16.47;14.77;;;5.30;99.90;;;;;;4955820;28;20462;-62
2020/12/05 13:59:48;;;;;;;17.17;15.33;;;5.30;99.90;;;;;;4955923;28;20538;-63
2020/12/05 14:02:14;;;;;;;20.37;14.17;;;5.20;99.90;;;;;;4956150;28;20557;-62
2020/12/05 14:04:41;;;;;;;15.10;13.50;;;5.20;99.90;;;;;;4956355;28;20451;-62
2020/12/05 14:07:07;;;;;;;15.57;13.97;;;5.20;99.90;;;;;;4955922;28;20451;-61
2020/12/05 14:09:34;;;;;;;14.30;12.80;;;5.10;99.90;;;;;;4955874;28;20482;-62
2020/12/05 14:12:01;;;;;;;15.67;14.07;;;5.00;99.90;;;;;;4956406;28;20482;-63
2020/12/05 14:14:28;;;;;;;18.03;14.33;;;5.00;99.90;;;;;;4955498;28;20927;-62
2020/12/05 14:16:54;;;;;;;15.03;12.97;;;4.90;99.90;;;;;;4955483;28;20967;-62
2020/12/05 14:19:21;;;;;;;15.90;13.77;;;4.90;99.90;;;;;;4956209;28;20451;-63
2020/12/05 14:21:47;;;;;;;16.57;14.47;;;4.80;99.90;;;;;;4956324;28;20487;-63
2020/12/05 14:24:14;;;;;;;16.67;13.37;;;4.80;99.90;;;;;;4955918;28;20452;-63
2020/12/05 14:26:41;;;;;;;21.07;14.33;;;4.80;99.90;;;;;;4955861;28;20872;-61
2020/12/05 14:29:07;;;;;;;15.30;13.10;;;4.70;99.90;;;;;;4955728;28;20462;-62
2020/12/05 14:31:33;;;;;;;14.53;12.53;;;4.70;99.90;;;;;;4955676;28;20475;-62
2020/12/05 14:33:59;;;;;;;18.80;14.30;;;4.70;99.90;;;;;;4955695;28;20467;-63
2020/12/05 14:36:26;;;;;;;15.10;13.30;;;4.70;99.90;;;;;;4955909;28;20436;-61
2020/12/05 14:38:52;;;;;;;15.73;14.13;;;4.60;99.90;;;;;;4955978;28;20530;-61
2020/12/05 14:41:20;;;;;;;16.93;13.97;;;4.60;99.90;;;;;;4956638;28;20482;-62
2020/12/05 14:43:47;;;;;;;16.13;13.30;;;4.70;99.90;;;;;;4955117;28;20940;-62
2020/12/05 14:46:15;;;;;;;15.80;13.20;;;4.70;99.90;;;;;;4955532;28;20448;-63
2020/12/05 14:48:42;;;;;;;20.20;14.40;;;4.80;99.90;;;;;;4955890;28;20455;-62
2020/12/05 14:51:09;;;;;;;15.23;13.60;;;4.80;99.90;;;;;;4955816;28;20480;-63
2020/12/05 14:53:36;;;;;;;16.00;14.07;;;4.80;99.90;;;;;;4958262;28;20514;-63
2020/12/05 14:56:04;;;;;;;17.63;14.57;;;4.70;99.90;;;;;;4959164;28;20510;-63
2020/12/05 14:58:31;;;;;;;19.77;14.93;;;4.80;99.90;;;;;;4959086;28;20478;-62
2020/12/05 15:00:59;;;;;;;17.40;14.40;;;4.80;99.90;;;;;;4958409;28;20485;-62
2020/12/05 15:03:25;;;;;;;16.90;14.40;;;4.70;99.90;;;;;;4959006;28;20936;-61
2020/12/05 15:05:51;;;;;;;16.60;13.40;;;4.70;99.90;;;;;;4959559;28;20459;-62
2020/12/05 15:08:18;;;;;;;14.03;12.50;;;4.60;99.90;;;;;;4959515;28;20451;-61
2020/12/05 15:10:44;;;;;;;18.43;13.93;;;4.60;99.90;;;;;;4958450;28;21014;-63
2020/12/05 15:13:10;;;;;;;14.57;13.07;;;4.60;99.90;;;;;;4958799;28;20486;-62
2020/12/05 15:15:36;;;;;;;15.40;13.90;;;4.60;99.90;;;;;;4958985;28;20456;-62
2020/12/05 15:18:04;;;;;;;23.57;16.50;;;4.60;99.90;;;;;;4959275;28;20971;-61
2020/12/05 15:20:39;;;;;;;26.80;18.93;;;4.50;99.90;;;;;;4958843;28;20458;-61
2020/12/05 15:23:05;;;;;;;22.35;19.90;;;4.60;99.90;;;;;;4957817;28;20452;-61
2020/12/05 15:25:31;;;;;;;16.70;14.87;;;4.80;99.90;;;;;;4958850;28;20204;-63
2020/12/05 15:27:57;;;;;;;16.87;15.17;;;4.90;99.90;;;;;;4958418;28;20491;-62
2020/12/05 15:30:24;;;;;;;16.90;15.17;;;5.10;99.90;;;;;;4958529;28;20863;-63
2020/12/05 15:32:50;;;;;;;18.37;15.40;;;5.10;99.90;;;;;;4958662;28;20480;-62
2020/12/05 15:35:17;;;;;;;17.13;14.40;;;5.10;99.90;;;;;;4958702;28;20462;-61
2020/12/05 15:37:43;;;;;;;18.20;14.40;;;5.00;99.90;;;;;;4959536;28;20455;-62
2020/12/05 15:40:09;;;;;;;16.47;13.63;;;4.90;99.90;;;;;;4958553;28;20831;-62
2020/12/05 15:42:35;;;;;;;16.50;14.47;;;4.80;99.90;;;;;;4958743;28;20475;-62
2020/12/05 15:45:01;;;;;;;17.17;14.93;;;4.70;99.90;;;;;;4958971;28;20459;-62
2020/12/05 15:47:28;;;;;;;18.30;15.03;;;4.60;99.90;;;;;;4958618;28;20456;-62
2020/12/05 15:49:54;;;;;;;16.07;14.37;;;4.60;99.90;;;;;;4958558;28;20458;-62
2020/12/05 15:52:21;;;;;;;18.17;14.60;;;4.50;99.90;;;;;;4958200;28;20988;-62
2020/12/05 15:54:47;;;;;;;16.07;14.37;;;4.40;99.90;;;;;;4959828;28;20447;-60
2020/12/05 15:57:13;;;;;;;19.87;15.83;;;4.30;99.90;;;;;;4960626;28;20443;-62
2020/12/05 15:59:39;;;;;;;23.10;17.10;;;4.10;99.90;;;;;;4958520;28;20455;-63
2020/12/05 16:02:06;;;;;;;18.50;16.50;;;4.00;99.90;;;;;;4957919;28;20483;-63
2020/12/05 16:04:32;;;;;;;23.23;18.20;;;4.00;99.90;;;;;;4957800;28;20448;-62
2020/12/05 16:06:58;;;;;;;40.03;29.23;;;3.90;99.90;;;;;;4959097;28;20456;-61
2020/12/05 16:09:25;;;;;;;18.57;15.10;;;3.90;99.90;;;;;;4958488;28;20451;-61
2020/12/05 16:11:51;;;;;;;18.17;16.20;;;3.90;99.90;;;;;;4958840;28;20475;-62
2020/12/05 16:14:17;;;;;;;18.50;15.63;;;3.90;99.90;;;;;;4958340;28;20484;-61
2020/12/05 16:16:44;;;;;;;17.50;15.60;;;3.90;99.90;;;;;;4959156;28;20495;-61
2020/12/05 16:19:10;;;;;;;18.07;15.10;;;4.00;99.90;;;;;;4958289;28;20455;-61
2020/12/05 16:21:36;;;;;;;17.57;14.80;;;4.00;99.90;;;;;;4959768;28;20843;-63
2020/12/05 16:24:03;;;;;;;16.93;13.57;;;4.00;99.90;;;;;;4981276;28;20440;-63
2020/12/05 16:26:30;;;;;;;21.13;15.70;;;4.00;99.90;;;;;;4981856;28;20452;-61
2020/12/05 16:28:56;;;;;;;19.27;15.00;;;4.00;99.90;;;;;;4981741;28;20440;-59
2020/12/05 16:31:23;;;;;;;16.10;14.00;;;4.00;99.90;;;;;;4981619;28;20479;-61
2020/12/05 16:33:50;;;;;;;16.90;14.20;;;4.00;99.90;;;;;;4967920;28;20964;-62
2020/12/05 16:36:17;;;;;;;16.80;13.90;;;4.00;99.90;;;;;;4966260;28;20976;-62
2020/12/05 16:38:43;;;;;;;16.70;14.07;;;4.00;99.90;;;;;;4970472;28;20447;-62
2020/12/05 16:41:12;;;;;;;15.03;13.00;;;4.10;99.90;;;;;;4970863;28;20507;-61
2020/12/05 16:43:39;;;;;;;15.30;13.43;;;4.20;99.90;;;;;;4964362;28;20850;-62
2020/12/05 16:46:05;;;;;;;22.00;15.10;;;4.20;99.90;;;;;;4957902;28;20455;-61
2020/12/05 16:48:31;;;;;;;16.50;13.80;;;4.30;99.90;;;;;;4957664;28;20945;-61
2020/12/05 16:50:57;;;;;;;15.17;13.57;;;4.40;99.90;;;;;;4957200;28;20474;-61
2020/12/05 16:53:24;;;;;;;15.03;13.37;;;4.40;99.90;;;;;;4957819;28;20845;-61
2020/12/05 16:55:50;;;;;;;17.77;15.03;;;4.50;99.90;;;;;;4956557;29;20967;-61
2020/12/05 16:58:16;;;;;;;23.30;18.77;;;4.50;99.90;;;;;;4957278;28;20463;-61
2020/12/05 17:00:43;;;;;;;17.07;14.63;;;4.50;99.90;;;;;;4956511;28;20471;-61
2020/12/05 17:03:09;;;;;;;17.50;14.90;;;4.50;99.90;;;;;;4956904;28;20447;-63
2020/12/05 17:05:36;;;;;;;19.30;15.33;;;4.40;99.90;;;;;;4956990;28;20451;-63
2020/12/05 17:08:02;;;;;;;15.87;14.17;;;4.50;99.90;;;;;;4957642;28;20462;-62
2020/12/05 17:10:28;;;;;;;19.27;16.17;;;4.40;99.90;;;;;;4957073;28;20447;-62
2020/12/05 17:12:54;;;;;;;18.70;15.77;;;4.40;99.90;;;;;;4957014;28;20471;-62
2020/12/05 17:15:20;;;;;;;16.77;15.07;;;4.30;99.90;;;;;;4960917;28;20456;-63
2020/12/05 17:17:48;;;;;;;16.77;14.90;;;4.40;99.90;;;;;;4957106;28;20455;-62
2020/12/05 17:20:14;;;;;;;19.47;15.40;;;4.40;99.90;;;;;;4956648;28;20459;-63
2020/12/05 17:22:40;;;;;;;19.20;16.03;;;4.30;99.90;;;;;;4956747;28;20499;-63
2020/12/05 17:25:06;;;;;;;17.73;15.60;;;4.30;99.90;;;;;;4957060;28;20506;-62
2020/12/05 17:27:33;;;;;;;18.33;16.10;;;4.10;99.90;;;;;;4956924;28;20458;-62
2020/12/05 17:29:59;;;;;;;20.97;16.50;;;4.20;99.90;;;;;;4957310;28;20476;-62
2020/12/05 17:32:27;;;;;;;18.83;15.60;;;4.20;99.90;;;;;;4956472;28;20984;-62
2020/12/05 17:34:56;;;;;;;21.00;16.47;;;4.20;99.90;;;;;;4957106;28;20522;-62
2020/12/05 17:37:23;;;;;;;21.57;16.53;;;4.20;99.90;;;;;;4970147;28;20447;-62
2020/12/05 17:39:51;;;;;;;22.13;18.20;;;4.30;99.90;;;;;;4968207;28;20451;-62